The Internet Pinball Serial Number Database or IPSND collects serial numbers of pinball machines and publishes a database of these on the Internet. Our goal is to make available a registration of all pinball machines in existence and allow tools for slicing, dicing and visualization of the data.

Games: 6,141  Serials: 44,367  Visitors: 21,159,642  Members: 4,239  Photos: 21,794  Lat/Lng: 21,997  Masks: 3,153(51.34 %)  Traits: 477  Nudges: 111,042  Backglasses: 1,852
  Most Serials: Twilight Zone(933)  Most Submissions: Rod McLarge(3,002)  Most Points: Rod McLarge(25,701)  Highest Quality: EM-fan(9.11)  Most Nudges: King of Pinball(14,845)
Submitter: Fun House
Member Since: Thursday, September 22, 2016
Submissions: 971 (8th)
SerialBot: 8,132 Points Total (6th), 7.27 Average Score (2,704th)
Nudges: 1,068(24th)
DateGameSerialNumberGame PartSerialBotDetails
 Item 1 to 100 of 971
Page:of 10 Page size:
12/11/2017 WHO dunnit 53344102066 Complete Game 53344102066
12/10/2017 PIN·BOT 54906477 Complete Game 54906477
12/10/2017 Doctor Who 21506663100 Complete Game 21506663100
12/10/2017 Bowling Queen 02167 Complete Game 02167
12/10/2017 Johnny Mnemonic 53342102169 Complete Game 53342102169
12/10/2017 Gladiators 116134 Complete Game 116134
12/10/2017 The Big Lebowski™ Pinball 030 Complete Game 030
12/8/2017 The Addams Family 20017I040302 Complete Game 20017I040302
12/8/2017 Medusa EME2400 Complete Game EME2400
12/8/2017 Terminator 2: Judgment Day 50013I977635 Complete Game 50013I977635
12/8/2017 Last Action Hero 96862 Complete Game 96862
12/8/2017 Cactus Canyon 53366400880 Complete Game 53366400880
12/8/2017 Scared Stiff 53348103227 Other Parts 53348103227
12/7/2017 Monster Bash 53365402851 Complete Game 53365402851
12/5/2017 Superman 260170 Complete Game 260170
12/4/2017 Attack from Mars 50241100260 Complete Game 50241100260
12/3/2017 The Flintstones 52029102098 Other Parts 52029102098
12/3/2017 Twilight Zone 50220057591 Other Parts 50220057591
12/3/2017 Star Trek: The Next Generation 52023408701 Other Parts 52023408701
12/3/2017 Indiana Jones: The Pinball Adventure 52517359261 Complete Game 52517359261
12/3/2017 Lunar Shot 89010 Complete Game 89010
12/2/2017 184183 Other Parts 184183
12/2/2017 The Bally Game Show 2003341231 Other Parts 2003341231
12/2/2017 Dr. Dude And His Excellent Ray 2016I497304 Complete Game 2016I497304
12/2/2017 Twilight Zone 50220185231 Complete Game 50220185231
12/2/2017 Mary Shelley's Frankenstein 117881 Complete Game 117881
12/2/2017 Space Invaders ESI2972 Complete Game ESI2972
12/2/2017 Big Bang Bar 46 Complete Game 46
11/29/2017 Dale Jr. 213907 Complete Game 213907
11/27/2017 The Hobbit Black Arrow Special Edition 08714074 Complete Game 08714074
11/27/2017 Rescue 911 122596 Complete Game 122596
11/26/2017 Genesis 2562 Complete Game 2562
11/26/2017 World Cup Soccer 53331109243 Complete Game 53331109243
11/26/2017 Dialed In! (Limited Edition) 08722313 Complete Game 08722313
11/23/2017 Firepower 425905 Complete Game 425905
11/22/2017 No Good Gofers 50261400275 Complete Game 50261400275
11/22/2017 Freedom 2674 Complete Game 2674
11/21/2017 Aerosmith (Premium) 268600 Complete Game 268600
11/21/2017 Aerosmith (Premium) 268062 Complete Game 268062
11/21/2017 Road Kings 542I47103 Other Parts 542I47103
11/21/2017 Fire! 556I112521 Other Parts 556I112521
11/21/2017 Fish Tales 50005I027092 Other Parts 50005I027092
11/21/2017 F-14 Tomcat 554I100104 Complete Game 554I100104
11/21/2017 Black Knight 462908 Other Parts 462908
11/21/2017 Star Wars 75350 Other Parts 75350
11/21/2017 Guns N' Roses 112583 Other Parts 112583
11/21/2017 Demolition Man 53328413172 Complete Game 53328413172
11/20/2017 The Machine: Bride of Pin·bot 50002662457 Other Parts 50002662457
11/20/2017 Xenon EXE6531 Other Parts EXE6531
11/20/2017 EPA2181 Other Parts EPA2181
11/20/2017 424970 Other Parts 424970
11/20/2017 Indiana Jones: The Pinball Adventure 53317331671 Other Parts 53317331671
11/20/2017 Judge Dredd 21320194172 Other Parts 21320194172
11/20/2017 Cirqus Voltaire 50462400008 Complete Game 50462400008
11/20/2017 The Getaway: High Speed II 50004850830 Complete Game 50004850830
11/20/2017 The Getaway: High Speed II 50004851455 Complete Game 50004851455
11/20/2017 Bad Girls 50893 Complete Game 50893
11/19/2017 Twilight Zone 52320110082 Complete Game 52320110082
11/19/2017 The Simpsons Pinball Party 172107 Complete Game 172107
11/19/2017 Jungle Lord 495592 Complete Game 495592
11/19/2017 Time Machine 00414022 Complete Game 00414022
11/19/2017 Silverball Mania ESM5535 Complete Game ESM5535
11/18/2017 Cyclone 564132324 Complete Game 564132324
11/18/2017 Fathom EFA2891 Other Parts EFA2891
11/17/2017 Bram Stoker's Dracula 51001976800 Complete Game 51001976800
11/17/2017 Attack from Mars 52141101673 Complete Game 52141101673
11/17/2017 The Addams Family 20017I043495 Complete Game 20017I043495
11/16/2017 Twilight Zone 53220189231 Complete Game 53220189231
11/15/2017 Safe Cracker 90403101190 Complete Game 90403101190
11/14/2017 Fish Tales 50005I025425 Other Parts 50005I025425
11/14/2017 Big Guns 557120944 Complete Game 557120944
11/13/2017 Doctor Who 22706684810 Other Parts 22706684810
11/12/2017 Elvis® 188509 Complete Game 188509
11/12/2017 Paddock 51663 Complete Game 51663
11/12/2017 210543 Other Parts 210543
11/11/2017 World Cup Soccer 51431103224 Complete Game 51431103224
11/11/2017 Terminator 2: Judgment Day 50013I779875 Other Parts 50013I779875
11/11/2017 The Addams Family 20017I599316 Other Parts 20017I599316
11/11/2017 The Flintstones 50429100585 Other Parts 50429100585
11/11/2017 Hurricane 50012I837261 Other Parts 50012I837261
11/11/2017 Elvira and the Party Monsters 2011I285047 Complete Game 2011I285047
11/11/2017 Indiana Jones: The Pinball Adventure 51017256551 Complete Game 51017256551
11/11/2017 Tales of the Arabian Nights 53347102118 Other Parts 53347102118
11/11/2017 Indianapolis 500 53326100191 Other Parts 53326100191
11/11/2017 Twilight Zone 52720180922 Complete Game 52720180922
11/11/2017 Medieval Madness 53359102155 Complete Game 53359102155
11/11/2017 Creature from the Black Lagoon 21018900320 Complete Game 21018900320
11/11/2017 Judge Dredd 23320226072 Complete Game 23320226072
11/11/2017 Monster Bash 53365401705 Complete Game 53365401705
11/11/2017 Black Knight 455461 Complete Game 455461
11/10/2017 The Machine: Bride of Pin·bot 50002661931 Complete Game 50002661931
11/10/2017 Medieval Madness 50459200560 Complete Game 50459200560
11/10/2017 Genesis 2487 Complete Game 2487
11/8/2017 Haunted House 08677 Complete Game 08677
11/8/2017 Grand Prix 291480 Complete Game 291480
11/7/2017 Millionaire 55560968 Other Parts 55560968
11/7/2017 Dirty Harry 51330111464 Other Parts 51330111464
11/7/2017 WHO dunnit 51344100877 Complete Game 51344100877
11/7/2017 The Lord of the Rings 178580 Complete Game 178580
11/5/2017 Fish Tales 50005X20003 Complete Game 50005X20003

Supported Browsers
Back 5 | Random | Forward 5 | List ]